Terminal Aerodrome Forecast
Issued by NWS

Home | Current Version | Previous Version | Text Only | Print | Product List | Glossary On
Versions: 1 2 3 4 5 6 7 8 9 10 11 12 13 14 15 16 17 18 19 20 21 22 23 24
000
FTUS44 KEWX 201100
TAFSSF
TAF
KSSF 201131Z 2012/2112 VRB03KT P6SM BKN012
     FM201500 09006KT P6SM BKN025
     FM201800 10007KT P6SM BKN040
      TEMPO 2021/2024 5SM -TSRA BR BKN030CB
     FM210100 12009KT P6SM SCT050 BKN250
     FM210900 VRB03KT P6SM BKN015=

USA.gov is the U.S. government's official web portal to all federal, state and local government web resources and services.